sensor_id;sensor_type;location;lat;lon;timestamp;P1;durP1;ratioP1;P2;durP2;ratioP2
22460;SDS011;11397;48.410;11.468;2023-11-21T00:04:41;1.30;;;1.30;;
22460;SDS011;11397;48.410;11.468;2023-11-21T00:09:42;1.30;;;1.30;;
22460;SDS011;11397;48.410;11.468;2023-11-21T00:14:45;1.38;;;1.38;;
22460;SDS011;11397;48.410;11.468;2023-11-21T00:19:47;1.30;;;1.30;;
22460;SDS011;11397;48.410;11.468;2023-11-21T00:24:49;1.27;;;1.27;;
22460;SDS011;11397;48.410;11.468;2023-11-21T00:29:52;1.15;;;1.15;;
22460;SDS011;11397;48.410;11.468;2023-11-21T00:34:54;1.15;;;1.15;;
22460;SDS011;11397;48.410;11.468;2023-11-21T00:39:56;1.20;;;1.20;;
22460;SDS011;11397;48.410;11.468;2023-11-21T00:44:59;1.40;;;1.40;;
22460;SDS011;11397;48.410;11.468;2023-11-21T00:50:01;1.15;;;1.15;;
22460;SDS011;11397;48.410;11.468;2023-11-21T00:55:03;1.20;;;1.20;;
22460;SDS011;11397;48.410;11.468;2023-11-21T01:00:07;1.20;;;1.20;;
22460;SDS011;11397;48.410;11.468;2023-11-21T01:05:13;1.38;;;1.38;;
22460;SDS011;11397;48.410;11.468;2023-11-21T01:10:15;1.35;;;1.35;;
22460;SDS011;11397;48.410;11.468;2023-11-21T01:15:19;1.27;;;1.27;;
22460;SDS011;11397;48.410;11.468;2023-11-21T01:20:20;1.60;;;1.60;;
22460;SDS011;11397;48.410;11.468;2023-11-21T01:25:22;1.42;;;1.42;;
22460;SDS011;11397;48.410;11.468;2023-11-21T01:30:26;1.50;;;1.50;;
22460;SDS011;11397;48.410;11.468;2023-11-21T01:35:28;1.50;;;1.50;;
22460;SDS011;11397;48.410;11.468;2023-11-21T01:40:30;1.38;;;1.38;;
22460;SDS011;11397;48.410;11.468;2023-11-21T01:45:33;1.50;;;1.50;;
22460;SDS011;11397;48.410;11.468;2023-11-21T01:50:35;1.35;;;1.35;;
22460;SDS011;11397;48.410;11.468;2023-11-21T01:55:36;1.60;;;1.60;;
22460;SDS011;11397;48.410;11.468;2023-11-21T02:00:40;1.55;;;1.55;;
22460;SDS011;11397;48.410;11.468;2023-11-21T02:05:42;1.50;;;1.50;;
22460;SDS011;11397;48.410;11.468;2023-11-21T02:10:43;1.50;;;1.50;;
22460;SDS011;11397;48.410;11.468;2023-11-21T02:15:47;1.60;;;1.60;;
22460;SDS011;11397;48.410;11.468;2023-11-21T02:20:50;1.60;;;1.60;;
22460;SDS011;11397;48.410;11.468;2023-11-21T02:25:53;1.50;;;1.50;;
22460;SDS011;11397;48.410;11.468;2023-11-21T02:30:55;1.35;;;1.35;;
22460;SDS011;11397;48.410;11.468;2023-11-21T02:35:58;1.45;;;1.45;;
22460;SDS011;11397;48.410;11.468;2023-11-21T02:41:01;1.30;;;1.30;;
22460;SDS011;11397;48.410;11.468;2023-11-21T02:46:04;1.30;;;1.30;;
22460;SDS011;11397;48.410;11.468;2023-11-21T02:51:07;1.50;;;1.50;;
22460;SDS011;11397;48.410;11.468;2023-11-21T02:56:10;1.33;;;1.33;;
22460;SDS011;11397;48.410;11.468;2023-11-21T03:01:12;1.50;;;1.50;;
22460;SDS011;11397;48.410;11.468;2023-11-21T03:06:14;1.33;;;1.33;;
22460;SDS011;11397;48.410;11.468;2023-11-21T03:11:17;1.52;;;1.52;;
22460;SDS011;11397;48.410;11.468;2023-11-21T03:16:19;1.55;;;1.55;;
22460;SDS011;11397;48.410;11.468;2023-11-21T03:21:20;1.50;;;1.50;;
22460;SDS011;11397;48.410;11.468;2023-11-21T03:26:24;1.40;;;1.40;;
22460;SDS011;11397;48.410;11.468;2023-11-21T03:31:26;1.70;;;1.70;;
22460;SDS011;11397;48.410;11.468;2023-11-21T03:36:28;1.50;;;1.50;;
22460;SDS011;11397;48.410;11.468;2023-11-21T03:41:32;1.40;;;1.40;;
22460;SDS011;11397;48.410;11.468;2023-11-21T03:46:34;1.42;;;1.42;;
22460;SDS011;11397;48.410;11.468;2023-11-21T03:51:36;1.50;;;1.50;;
22460;SDS011;11397;48.410;11.468;2023-11-21T03:56:39;1.60;;;1.60;;
22460;SDS011;11397;48.410;11.468;2023-11-21T04:01:41;1.60;;;1.60;;
22460;SDS011;11397;48.410;11.468;2023-11-21T04:06:42;1.58;;;1.58;;
22460;SDS011;11397;48.410;11.468;2023-11-21T04:11:45;1.50;;;1.50;;
22460;SDS011;11397;48.410;11.468;2023-11-21T04:16:47;1.33;;;1.33;;
22460;SDS011;11397;48.410;11.468;2023-11-21T04:21:49;1.52;;;1.52;;
22460;SDS011;11397;48.410;11.468;2023-11-21T04:26:52;1.50;;;1.50;;
22460;SDS011;11397;48.410;11.468;2023-11-21T04:31:54;1.60;;;1.60;;
22460;SDS011;11397;48.410;11.468;2023-11-21T04:36:55;1.50;;;1.50;;
22460;SDS011;11397;48.410;11.468;2023-11-21T04:41:58;1.48;;;1.48;;
22460;SDS011;11397;48.410;11.468;2023-11-21T04:47:00;1.45;;;1.45;;
22460;SDS011;11397;48.410;11.468;2023-11-21T04:52:02;1.27;;;1.27;;
22460;SDS011;11397;48.410;11.468;2023-11-21T04:57:06;1.70;;;1.70;;
22460;SDS011;11397;48.410;11.468;2023-11-21T05:02:08;1.50;;;1.50;;
22460;SDS011;11397;48.410;11.468;2023-11-21T05:07:10;1.50;;;1.50;;
22460;SDS011;11397;48.410;11.468;2023-11-21T05:12:13;1.35;;;1.35;;
22460;SDS011;11397;48.410;11.468;2023-11-21T05:17:15;1.55;;;1.55;;
22460;SDS011;11397;48.410;11.468;2023-11-21T05:22:17;1.40;;;1.40;;
22460;SDS011;11397;48.410;11.468;2023-11-21T05:27:21;1.60;;;1.60;;
22460;SDS011;11397;48.410;11.468;2023-11-21T05:32:23;1.30;;;1.30;;
22460;SDS011;11397;48.410;11.468;2023-11-21T05:37:25;1.60;;;1.60;;
22460;SDS011;11397;48.410;11.468;2023-11-21T05:42:28;1.63;;;1.63;;
22460;SDS011;11397;48.410;11.468;2023-11-21T05:47:31;1.40;;;1.40;;
22460;SDS011;11397;48.410;11.468;2023-11-21T05:52:33;1.40;;;1.40;;
22460;SDS011;11397;48.410;11.468;2023-11-21T06:03:16;1.63;;;1.63;;
22460;SDS011;11397;48.410;11.468;2023-11-21T06:08:17;1.42;;;1.42;;
22460;SDS011;11397;48.410;11.468;2023-11-21T06:13:19;1.40;;;1.40;;
22460;SDS011;11397;48.410;11.468;2023-11-21T06:18:26;1.23;;;1.23;;
22460;SDS011;11397;48.410;11.468;2023-11-21T06:23:27;1.30;;;1.30;;
22460;SDS011;11397;48.410;11.468;2023-11-21T06:28:29;1.20;;;1.20;;
22460;SDS011;11397;48.410;11.468;2023-11-21T06:33:32;1.17;;;1.17;;
22460;SDS011;11397;48.410;11.468;2023-11-21T06:38:34;1.10;;;1.10;;
22460;SDS011;11397;48.410;11.468;2023-11-21T06:43:36;1.02;;;1.02;;
22460;SDS011;11397;48.410;11.468;2023-11-21T06:48:38;1.27;;;1.27;;
22460;SDS011;11397;48.410;11.468;2023-11-21T06:53:41;1.00;;;1.00;;
22460;SDS011;11397;48.410;11.468;2023-11-21T06:58:43;1.10;;;1.10;;
22460;SDS011;11397;48.410;11.468;2023-11-21T07:03:47;1.10;;;1.10;;
22460;SDS011;11397;48.410;11.468;2023-11-21T07:08:49;1.10;;;1.10;;
22460;SDS011;11397;48.410;11.468;2023-11-21T07:13:51;1.15;;;1.15;;
22460;SDS011;11397;48.410;11.468;2023-11-21T07:18:54;1.05;;;1.05;;
22460;SDS011;11397;48.410;11.468;2023-11-21T07:23:56;1.10;;;1.10;;
22460;SDS011;11397;48.410;11.468;2023-11-21T07:28:58;0.90;;;0.90;;
22460;SDS011;11397;48.410;11.468;2023-11-21T07:34:01;1.00;;;1.00;;
22460;SDS011;11397;48.410;11.468;2023-11-21T07:39:03;1.10;;;1.10;;
22460;SDS011;11397;48.410;11.468;2023-11-21T07:44:06;0.88;;;0.88;;
22460;SDS011;11397;48.410;11.468;2023-11-21T07:49:09;0.88;;;0.88;;
22460;SDS011;11397;48.410;11.468;2023-11-21T07:54:12;0.90;;;0.90;;
22460;SDS011;11397;48.410;11.468;2023-11-21T07:59:14;1.00;;;1.00;;
22460;SDS011;11397;48.410;11.468;2023-11-21T08:04:17;1.10;;;1.10;;
22460;SDS011;11397;48.410;11.468;2023-11-21T08:09:19;0.98;;;0.98;;
22460;SDS011;11397;48.410;11.468;2023-11-21T08:14:24;1.20;;;1.20;;
22460;SDS011;11397;48.410;11.468;2023-11-21T08:19:27;1.13;;;1.13;;
22460;SDS011;11397;48.410;11.468;2023-11-21T08:24:28;1.20;;;1.20;;
22460;SDS011;11397;48.410;11.468;2023-11-21T08:29:30;0.88;;;0.88;;
22460;SDS011;11397;48.410;11.468;2023-11-21T08:34:33;0.88;;;0.88;;
22460;SDS011;11397;48.410;11.468;2023-11-21T08:39:36;1.20;;;1.20;;
22460;SDS011;11397;48.410;11.468;2023-11-21T08:44:38;1.25;;;1.25;;
22460;SDS011;11397;48.410;11.468;2023-11-21T08:49:41;1.30;;;1.30;;
22460;SDS011;11397;48.410;11.468;2023-11-21T08:54:43;1.05;;;1.05;;
22460;SDS011;11397;48.410;11.468;2023-11-21T08:59:46;1.42;;;1.42;;
22460;SDS011;11397;48.410;11.468;2023-11-21T09:04:49;1.10;;;1.10;;
22460;SDS011;11397;48.410;11.468;2023-11-21T09:09:51;1.30;;;1.30;;
22460;SDS011;11397;48.410;11.468;2023-11-21T09:14:52;1.35;;;1.35;;
22460;SDS011;11397;48.410;11.468;2023-11-21T09:19:56;1.40;;;1.40;;
22460;SDS011;11397;48.410;11.468;2023-11-21T09:24:58;1.60;;;1.60;;
22460;SDS011;11397;48.410;11.468;2023-11-21T09:29:59;1.40;;;1.40;;
22460;SDS011;11397;48.410;11.468;2023-11-21T09:35:03;1.40;;;1.40;;
22460;SDS011;11397;48.410;11.468;2023-11-21T09:40:05;1.48;;;1.48;;
22460;SDS011;11397;48.410;11.468;2023-11-21T09:45:14;1.40;;;1.40;;
22460;SDS011;11397;48.410;11.468;2023-11-21T09:50:19;1.58;;;1.58;;
22460;SDS011;11397;48.410;11.468;2023-11-21T09:55:21;1.40;;;1.40;;
22460;SDS011;11397;48.410;11.468;2023-11-21T10:00:24;1.40;;;1.40;;
22460;SDS011;11397;48.410;11.468;2023-11-21T10:05:28;1.55;;;1.55;;
22460;SDS011;11397;48.410;11.468;2023-11-21T10:10:33;1.50;;;1.50;;
22460;SDS011;11397;48.410;11.468;2023-11-21T10:15:36;1.50;;;1.50;;
22460;SDS011;11397;48.410;11.468;2023-11-21T10:20:39;1.65;;;1.65;;
22460;SDS011;11397;48.410;11.468;2023-11-21T10:25:41;1.67;;;1.67;;
22460;SDS011;11397;48.410;11.468;2023-11-21T10:30:43;1.35;;;1.35;;
22460;SDS011;11397;48.410;11.468;2023-11-21T10:35:47;1.80;;;1.80;;
22460;SDS011;11397;48.410;11.468;2023-11-21T10:40:51;1.40;;;1.40;;
22460;SDS011;11397;48.410;11.468;2023-11-21T10:45:54;1.45;;;1.45;;
22460;SDS011;11397;48.410;11.468;2023-11-21T10:51:01;1.60;;;1.60;;
22460;SDS011;11397;48.410;11.468;2023-11-21T10:56:08;1.50;;;1.50;;
22460;SDS011;11397;48.410;11.468;2023-11-21T11:01:11;1.40;;;1.40;;
22460;SDS011;11397;48.410;11.468;2023-11-21T11:06:16;1.55;;;1.55;;
22460;SDS011;11397;48.410;11.468;2023-11-21T11:11:18;1.20;;;1.20;;
22460;SDS011;11397;48.410;11.468;2023-11-21T11:16:19;1.27;;;1.27;;
22460;SDS011;11397;48.410;11.468;2023-11-21T11:21:27;1.20;;;1.20;;
22460;SDS011;11397;48.410;11.468;2023-11-21T11:26:36;1.42;;;1.42;;
22460;SDS011;11397;48.410;11.468;2023-11-21T11:31:43;1.40;;;1.40;;
22460;SDS011;11397;48.410;11.468;2023-11-21T11:36:52;1.50;;;1.50;;
22460;SDS011;11397;48.410;11.468;2023-11-21T11:41:57;1.40;;;1.40;;
22460;SDS011;11397;48.410;11.468;2023-11-21T11:47:00;1.52;;;1.52;;
22460;SDS011;11397;48.410;11.468;2023-11-21T11:57:25;1.55;;;1.55;;
22460;SDS011;11397;48.410;11.468;2023-11-21T12:02:27;1.60;;;1.60;;
22460;SDS011;11397;48.410;11.468;2023-11-21T12:07:38;1.70;;;1.70;;
22460;SDS011;11397;48.410;11.468;2023-11-21T12:12:44;1.33;;;1.33;;
22460;SDS011;11397;48.410;11.468;2023-11-21T12:17:47;1.50;;;1.50;;
22460;SDS011;11397;48.410;11.468;2023-11-21T12:22:50;1.50;;;1.50;;
22460;SDS011;11397;48.410;11.468;2023-11-21T12:27:54;1.60;;;1.60;;
22460;SDS011;11397;48.410;11.468;2023-11-21T12:32:55;1.40;;;1.40;;
22460;SDS011;11397;48.410;11.468;2023-11-21T12:37:58;1.63;;;1.63;;
22460;SDS011;11397;48.410;11.468;2023-11-21T12:43:01;1.60;;;1.60;;
22460;SDS011;11397;48.410;11.468;2023-11-21T12:48:05;1.80;;;1.80;;
22460;SDS011;11397;48.410;11.468;2023-11-21T12:53:09;1.60;;;1.60;;
22460;SDS011;11397;48.410;11.468;2023-11-21T12:58:14;1.60;;;1.60;;
22460;SDS011;11397;48.410;11.468;2023-11-21T13:03:16;1.40;;;1.40;;
22460;SDS011;11397;48.410;11.468;2023-11-21T13:08:20;1.40;;;1.40;;
22460;SDS011;11397;48.410;11.468;2023-11-21T13:13:24;1.13;;;1.13;;
22460;SDS011;11397;48.410;11.468;2023-11-21T13:18:28;1.38;;;1.38;;
22460;SDS011;11397;48.410;11.468;2023-11-21T13:23:34;1.20;;;1.20;;
22460;SDS011;11397;48.410;11.468;2023-11-21T13:28:37;1.50;;;1.50;;
22460;SDS011;11397;48.410;11.468;2023-11-21T13:33:41;1.30;;;1.30;;
22460;SDS011;11397;48.410;11.468;2023-11-21T13:38:50;1.23;;;1.23;;
22460;SDS011;11397;48.410;11.468;2023-11-21T13:43:54;1.50;;;1.50;;
22460;SDS011;11397;48.410;11.468;2023-11-21T13:49:04;1.50;;;1.50;;
22460;SDS011;11397;48.410;11.468;2023-11-21T13:54:10;1.33;;;1.33;;
22460;SDS011;11397;48.410;11.468;2023-11-21T13:59:13;1.45;;;1.45;;
22460;SDS011;11397;48.410;11.468;2023-11-21T14:04:22;1.40;;;1.40;;
22460;SDS011;11397;48.410;11.468;2023-11-21T14:09:39;1.40;;;1.40;;
22460;SDS011;11397;48.410;11.468;2023-11-21T14:14:45;1.30;;;1.30;;
22460;SDS011;11397;48.410;11.468;2023-11-21T14:19:48;1.10;;;1.10;;
22460;SDS011;11397;48.410;11.468;2023-11-21T14:24:50;1.65;;;1.65;;
22460;SDS011;11397;48.410;11.468;2023-11-21T14:29:54;1.50;;;1.50;;
22460;SDS011;11397;48.410;11.468;2023-11-21T14:34:57;1.30;;;1.30;;
22460;SDS011;11397;48.410;11.468;2023-11-21T14:39:59;1.38;;;1.38;;
22460;SDS011;11397;48.410;11.468;2023-11-21T14:45:03;1.27;;;1.27;;
22460;SDS011;11397;48.410;11.468;2023-11-21T14:50:07;1.35;;;1.35;;
22460;SDS011;11397;48.410;11.468;2023-11-21T14:55:32;1.20;;;1.20;;
22460;SDS011;11397;48.410;11.468;2023-11-21T15:00:47;1.20;;;1.20;;
22460;SDS011;11397;48.410;11.468;2023-11-21T15:05:51;1.50;;;1.50;;
22460;SDS011;11397;48.410;11.468;2023-11-21T15:10:54;1.23;;;1.23;;
22460;SDS011;11397;48.410;11.468;2023-11-21T15:15:57;1.25;;;1.25;;
22460;SDS011;11397;48.410;11.468;2023-11-21T15:21:07;1.10;;;1.10;;
22460;SDS011;11397;48.410;11.468;2023-11-21T15:26:12;1.20;;;1.20;;
22460;SDS011;11397;48.410;11.468;2023-11-21T15:31:16;1.27;;;1.27;;
22460;SDS011;11397;48.410;11.468;2023-11-21T15:36:22;0.98;;;0.98;;
22460;SDS011;11397;48.410;11.468;2023-11-21T15:41:27;1.33;;;1.33;;
22460;SDS011;11397;48.410;11.468;2023-11-21T15:46:30;1.15;;;1.15;;
22460;SDS011;11397;48.410;11.468;2023-11-21T15:51:33;1.30;;;1.30;;
22460;SDS011;11397;48.410;11.468;2023-11-21T15:56:37;1.25;;;1.25;;
22460;SDS011;11397;48.410;11.468;2023-11-21T16:01:41;1.00;;;1.00;;
22460;SDS011;11397;48.410;11.468;2023-11-21T16:06:44;1.10;;;1.10;;
22460;SDS011;11397;48.410;11.468;2023-11-21T16:11:46;1.33;;;1.33;;
22460;SDS011;11397;48.410;11.468;2023-11-21T16:16:50;1.20;;;1.20;;
22460;SDS011;11397;48.410;11.468;2023-11-21T16:21:53;1.50;;;1.50;;
22460;SDS011;11397;48.410;11.468;2023-11-21T16:26:54;1.20;;;1.20;;
22460;SDS011;11397;48.410;11.468;2023-11-21T16:31:58;1.50;;;1.50;;
22460;SDS011;11397;48.410;11.468;2023-11-21T16:37:00;1.60;;;1.60;;
22460;SDS011;11397;48.410;11.468;2023-11-21T16:42:04;1.63;;;1.63;;
22460;SDS011;11397;48.410;11.468;2023-11-21T16:47:08;1.48;;;1.48;;
22460;SDS011;11397;48.410;11.468;2023-11-21T16:52:09;1.40;;;1.40;;
22460;SDS011;11397;48.410;11.468;2023-11-21T16:57:11;1.45;;;1.45;;
22460;SDS011;11397;48.410;11.468;2023-11-21T17:02:15;1.60;;;1.60;;
22460;SDS011;11397;48.410;11.468;2023-11-21T17:07:17;1.52;;;1.52;;
22460;SDS011;11397;48.410;11.468;2023-11-21T17:12:20;1.70;;;1.70;;
22460;SDS011;11397;48.410;11.468;2023-11-21T17:17:23;1.70;;;1.70;;
22460;SDS011;11397;48.410;11.468;2023-11-21T17:22:25;1.48;;;1.48;;
22460;SDS011;11397;48.410;11.468;2023-11-21T17:27:27;1.70;;;1.70;;
22460;SDS011;11397;48.410;11.468;2023-11-21T17:32:32;1.40;;;1.40;;
22460;SDS011;11397;48.410;11.468;2023-11-21T17:37:35;1.33;;;1.33;;
22460;SDS011;11397;48.410;11.468;2023-11-21T17:42:36;1.52;;;1.52;;
22460;SDS011;11397;48.410;11.468;2023-11-21T17:47:41;1.55;;;1.55;;
22460;SDS011;11397;48.410;11.468;2023-11-21T17:52:42;1.40;;;1.40;;
22460;SDS011;11397;48.410;11.468;2023-11-21T17:57:45;1.55;;;1.55;;
22460;SDS011;11397;48.410;11.468;2023-11-21T18:02:48;1.63;;;1.63;;
22460;SDS011;11397;48.410;11.468;2023-11-21T18:07:50;1.58;;;1.58;;
22460;SDS011;11397;48.410;11.468;2023-11-21T18:12:51;1.73;;;1.73;;
22460;SDS011;11397;48.410;11.468;2023-11-21T18:17:55;1.63;;;1.63;;
22460;SDS011;11397;48.410;11.468;2023-11-21T18:22:57;1.50;;;1.50;;
22460;SDS011;11397;48.410;11.468;2023-11-21T18:27:59;1.50;;;1.50;;
22460;SDS011;11397;48.410;11.468;2023-11-21T18:33:02;1.73;;;1.73;;
22460;SDS011;11397;48.410;11.468;2023-11-21T18:38:04;1.52;;;1.52;;
22460;SDS011;11397;48.410;11.468;2023-11-21T18:43:06;1.50;;;1.50;;
22460;SDS011;11397;48.410;11.468;2023-11-21T18:48:09;1.60;;;1.60;;
22460;SDS011;11397;48.410;11.468;2023-11-21T18:53:13;1.50;;;1.50;;
22460;SDS011;11397;48.410;11.468;2023-11-21T18:58:15;1.50;;;1.50;;
22460;SDS011;11397;48.410;11.468;2023-11-21T19:03:18;1.70;;;1.70;;
22460;SDS011;11397;48.410;11.468;2023-11-21T19:08:20;1.60;;;1.60;;
22460;SDS011;11397;48.410;11.468;2023-11-21T19:13:22;1.60;;;1.60;;
22460;SDS011;11397;48.410;11.468;2023-11-21T19:18:26;1.38;;;1.38;;
22460;SDS011;11397;48.410;11.468;2023-11-21T19:23:28;1.67;;;1.67;;
22460;SDS011;11397;48.410;11.468;2023-11-21T19:28:29;1.50;;;1.50;;
22460;SDS011;11397;48.410;11.468;2023-11-21T19:33:33;1.58;;;1.58;;
22460;SDS011;11397;48.410;11.468;2023-11-21T19:38:34;1.50;;;1.50;;
22460;SDS011;11397;48.410;11.468;2023-11-21T19:43:36;1.90;;;1.90;;
22460;SDS011;11397;48.410;11.468;2023-11-21T19:48:39;1.60;;;1.60;;
22460;SDS011;11397;48.410;11.468;2023-11-21T19:53:42;1.70;;;1.70;;
22460;SDS011;11397;48.410;11.468;2023-11-21T19:58:44;1.60;;;1.60;;
22460;SDS011;11397;48.410;11.468;2023-11-21T20:03:47;1.73;;;1.73;;
22460;SDS011;11397;48.410;11.468;2023-11-21T20:08:51;1.55;;;1.55;;
22460;SDS011;11397;48.410;11.468;2023-11-21T20:13:56;1.33;;;1.33;;
22460;SDS011;11397;48.410;11.468;2023-11-21T20:19:01;1.50;;;1.50;;
22460;SDS011;11397;48.410;11.468;2023-11-21T20:24:02;1.50;;;1.50;;
22460;SDS011;11397;48.410;11.468;2023-11-21T20:29:04;1.58;;;1.58;;
22460;SDS011;11397;48.410;11.468;2023-11-21T20:34:07;1.55;;;1.55;;
22460;SDS011;11397;48.410;11.468;2023-11-21T20:39:09;1.45;;;1.45;;
22460;SDS011;11397;48.410;11.468;2023-11-21T20:44:11;1.40;;;1.40;;
22460;SDS011;11397;48.410;11.468;2023-11-21T20:49:15;1.50;;;1.50;;
22460;SDS011;11397;48.410;11.468;2023-11-21T20:54:18;1.58;;;1.58;;
22460;SDS011;11397;48.410;11.468;2023-11-21T20:59:19;1.52;;;1.52;;
22460;SDS011;11397;48.410;11.468;2023-11-21T21:04:23;1.58;;;1.58;;
22460;SDS011;11397;48.410;11.468;2023-11-21T21:09:24;1.58;;;1.58;;
22460;SDS011;11397;48.410;11.468;2023-11-21T21:14:26;1.60;;;1.60;;
22460;SDS011;11397;48.410;11.468;2023-11-21T21:19:32;1.48;;;1.48;;
22460;SDS011;11397;48.410;11.468;2023-11-21T21:24:34;1.60;;;1.60;;
22460;SDS011;11397;48.410;11.468;2023-11-21T21:29:36;1.35;;;1.35;;
22460;SDS011;11397;48.410;11.468;2023-11-21T21:34:39;1.50;;;1.50;;
22460;SDS011;11397;48.410;11.468;2023-11-21T21:39:41;1.50;;;1.50;;
22460;SDS011;11397;48.410;11.468;2023-11-21T21:44:42;1.40;;;1.40;;
22460;SDS011;11397;48.410;11.468;2023-11-21T21:49:46;1.50;;;1.50;;
22460;SDS011;11397;48.410;11.468;2023-11-21T21:54:47;1.40;;;1.40;;
22460;SDS011;11397;48.410;11.468;2023-11-21T21:59:49;1.60;;;1.60;;
22460;SDS011;11397;48.410;11.468;2023-11-21T22:04:52;1.60;;;1.60;;
22460;SDS011;11397;48.410;11.468;2023-11-21T22:09:54;1.60;;;1.60;;
22460;SDS011;11397;48.410;11.468;2023-11-21T22:14:55;1.33;;;1.33;;
22460;SDS011;11397;48.410;11.468;2023-11-21T22:19:58;1.30;;;1.30;;
22460;SDS011;11397;48.410;11.468;2023-11-21T22:25:00;1.55;;;1.55;;
22460;SDS011;11397;48.410;11.468;2023-11-21T22:30:04;1.38;;;1.38;;
22460;SDS011;11397;48.410;11.468;2023-11-21T22:35:07;1.58;;;1.58;;
22460;SDS011;11397;48.410;11.468;2023-11-21T22:40:10;1.40;;;1.40;;
22460;SDS011;11397;48.410;11.468;2023-11-21T22:45:11;1.50;;;1.50;;
22460;SDS011;11397;48.410;11.468;2023-11-21T22:50:14;1.35;;;1.35;;
22460;SDS011;11397;48.410;11.468;2023-11-21T22:55:17;1.58;;;1.58;;
22460;SDS011;11397;48.410;11.468;2023-11-21T23:00:19;1.48;;;1.48;;
22460;SDS011;11397;48.410;11.468;2023-11-21T23:05:23;1.40;;;1.40;;
22460;SDS011;11397;48.410;11.468;2023-11-21T23:10:24;1.42;;;1.42;;
22460;SDS011;11397;48.410;11.468;2023-11-21T23:15:27;1.65;;;1.65;;
22460;SDS011;11397;48.410;11.468;2023-11-21T23:20:31;1.60;;;1.60;;
22460;SDS011;11397;48.410;11.468;2023-11-21T23:25:32;1.60;;;1.60;;
22460;SDS011;11397;48.410;11.468;2023-11-21T23:30:34;1.48;;;1.48;;
22460;SDS011;11397;48.410;11.468;2023-11-21T23:35:37;1.50;;;1.50;;
22460;SDS011;11397;48.410;11.468;2023-11-21T23:40:39;1.60;;;1.60;;
22460;SDS011;11397;48.410;11.468;2023-11-21T23:45:41;1.55;;;1.55;;
22460;SDS011;11397;48.410;11.468;2023-11-21T23:50:44;1.23;;;1.23;;
22460;SDS011;11397;48.410;11.468;2023-11-21T23:55:45;1.40;;;1.40;;
